Main page
METAR-TAF:

METAR-TAF

Airports :

Kythira, Greece

Kithira Island National Airport

latitude: 36-17-21N, longitude: 023-01-24E, elevation: 321 m

Current weather observation

The report was made 7 hours and 21 minutes ago, at 15:50 UTC
Wind 12 kt from the West with gusts up to 22 kt
Temperature 12°C
Humidity 71%
Pressure 1017 hPa
Visibility 10 km or more
Few clouds at a height of 2500 ft

METAR: LGKC 191550Z 26012G22KT 9999 FEW025 12/07 Q1017

Time: 01:11 (23:11 UTC)

Forecast

The report was made 3 hours and 11 minutes ago, at 20:00 UTC
Forecast valid from 19 at 21 UTC to 20 at 06 UTC
Wind 15 kt from the Southwest with gusts up to 25 kt
Visibility 10 km or more
Few clouds at a height of 2500 ft

TAF: LGKC 192000Z 1921/2006 23015G25KT 9999 FEW025

Weather observations and forecasts of more than 4000 airports (METAR and TAF reports).

The available stations are represented by yellow and red dots on the map.

Hover mouse over dot to see the name of the station.

Then click to see weather observations and forecasts.

To change the map : click on the green buttons with a black cross to zoom in, on the green button with a dash to zoom out, or on the green arrows for adjacent maps.


METAR-TAF: